-> Other stations

1455

Speed(max): 8.1(10.3)knots
Direction:35° ( NE)
Temperature: 30.8°C
Arrived: 2026-09-02 09:25:16 CEST

Past data:
hh:mmknots
Dir (°)
°C
09:23 7.6 8.6 NE(41) 31.1
09:21 7 8.1 NNE(33) 31.3
09:19 6.5 8.1 NNE(20) 31.5
09:17 5.4 7 NE(34) 31.6
09:15 5.4 7.6 NE(41) 31.5
09:13 4.9 7 NE(37) 31.6
09:11 4.3 7 NNE(32) 31.7
09:09 4.3 5.9 NE(34) 31.6
09:07 4.3 5.9 NNE(33) 31.5
09:05 4.9 7 NNE(23) 31.2
09:03 4.9 5.9 NNE(18) 31.2
09:01 4.3 7 N(11) 31.5
08:59 4.3 5.9 NNE(16) 31.3
08:57 4.3 5.4 NNE(28) 31.5
15 min. averages:
hh:mmknots
Dir (°)
°C
09:15 4.3 7 NNE(27) 31.5
09:00 4.9 7.6 NNE(19) 31.2
08:45 3.8 5.9 NNE(16) 31.4
08:30 0.5 4.9 NNW(331) 34.0
08:15 0 0 NW(317) 31.9
08:00 0 0 NW(317) 27.3
07:45 0 0 NW(317) 23.0
07:30 0 0 NW(317) 23.2
07:15 0 0 NW(317) 20.6
07:00 0 0 NW(317) 20.7
06:45 0 0 NW(317) 20.0
06:30 0 0 NW(317) 20.2
06:15 0.5 2.2 NW(317) 20.6
06:00 1.6 2.7 NW(317) 21.1
05:45 0.5 3.8 NW(312) 21.1
Stations at HR:
1455
-> Other regions

Desktop view
Data provided by Holfuy.
© Holfuy Weather 2026